Time;durP1;ratioP1;P1;durP2;ratioP2;P2;SDS_P1;SDS_P2;PMS_P1;PMS_P2;Temp;Humidity;BMP_temperature;BMP_pressure;BME280_temperature;BME280_humidity;BME280_pressure;Samples;Min_cycle;Max_cycle;Signal;HPM_P1;HPM_P2
2022/09/01 00:00:22;;;;;;;7.43;2.03;;;13.80;99.90;;;;;;5051118;28;20071;-72
2022/09/01 00:02:49;;;;;;;5.30;1.83;;;13.80;99.90;;;;;;5048520;28;20044;-72
2022/09/01 00:05:15;;;;;;;5.57;2.00;;;13.80;99.90;;;;;;5057561;28;20123;-74
2022/09/01 00:07:41;;;;;;;4.38;1.80;;;13.80;99.90;;;;;;5040863;28;20115;-72
2022/09/01 00:10:07;;;;;;;6.07;1.83;;;13.80;99.90;;;;;;5043458;28;20041;-73
2022/09/01 00:12:33;;;;;;;6.18;1.70;;;13.90;99.90;;;;;;5007986;28;20127;-73
2022/09/01 00:14:59;;;;;;;4.75;1.80;;;13.80;99.90;;;;;;5046814;28;20543;-72
2022/09/01 00:17:26;;;;;;;4.40;1.70;;;13.70;99.90;;;;;;5052651;28;20045;-72
2022/09/01 00:19:51;;;;;;;5.45;1.90;;;13.70;99.90;;;;;;5048500;28;20036;-71
2022/09/01 00:22:17;;;;;;;5.57;2.10;;;13.80;99.90;;;;;;5074130;28;20044;-71
2022/09/01 00:24:43;;;;;;;5.38;1.95;;;13.70;99.90;;;;;;5066652;28;20535;-72
2022/09/01 00:27:09;;;;;;;6.40;1.90;;;13.80;99.90;;;;;;5051788;28;20928;-71
2022/09/01 00:29:34;;;;;;;4.32;1.92;;;13.70;99.90;;;;;;5043069;28;20456;-72
2022/09/01 00:32:00;;;;;;;6.32;1.85;;;13.70;99.90;;;;;;5052562;28;20076;-71
2022/09/01 00:34:26;;;;;;;5.47;1.90;;;13.70;99.90;;;;;;5054537;28;20041;-72
2022/09/01 00:36:51;;;;;;;3.80;1.60;;;13.70;99.90;;;;;;5054175;28;20048;-73
2022/09/01 00:39:17;;;;;;;6.47;1.85;;;13.70;99.90;;;;;;5036385;28;20124;-72
2022/09/01 00:41:44;;;;;;;6.00;1.90;;;13.70;99.90;;;;;;5048204;28;20040;-72
2022/09/01 00:44:14;;;;;;;4.10;1.80;;;13.60;99.90;;;;;;5054791;28;20077;-72
2022/09/01 00:46:51;;;;;;;6.50;1.80;;;13.60;99.90;;;;;;5036543;28;20094;-72
2022/09/01 00:49:44;;;;;;;4.85;1.67;;;13.50;99.90;;;;;;5057420;28;20087;-72
2022/09/01 00:52:15;;;;;;;4.90;1.70;;;13.60;99.90;;;;;;5025397;28;20040;-71
2022/09/01 00:54:44;;;;;;;5.18;1.70;;;13.60;99.90;;;;;;5046521;28;20052;-72
2022/09/01 00:57:11;;;;;;;5.28;1.90;;;13.50;99.90;;;;;;5053319;28;20087;-72
2022/09/01 01:00:09;;;;;;;4.13;1.70;;;13.50;99.90;;;;;;5056622;28;20036;-72
2022/09/01 01:02:37;;;;;;;5.85;1.90;;;13.40;99.90;;;;;;5047369;28;20057;-72
2022/09/01 01:05:04;;;;;;;5.13;1.73;;;13.40;99.90;;;;;;5061503;28;20174;-72
2022/09/01 01:08:17;;;;;;;5.35;1.92;;;13.40;99.90;;;;;;5036669;28;20468;-72
2022/09/01 01:10:42;;;;;;;4.40;2.17;;;13.40;99.90;;;;;;5052890;28;20049;-71
2022/09/01 01:13:15;;;;;;;5.75;1.80;;;13.30;99.90;;;;;;5053292;28;20040;-72
2022/09/01 01:15:43;;;;;;;5.18;2.00;;;13.30;99.90;;;;;;5038583;28;20079;-71
2022/09/01 01:18:13;;;;;;;6.75;2.08;;;13.30;99.90;;;;;;5052104;28;20086;-72
2022/09/01 01:23:35;;;;;;;5.75;2.00;;;13.20;99.90;;;;;;5035998;28;20455;-72
2022/09/01 01:26:03;;;;;;;5.95;1.90;;;13.10;99.90;;;;;;5041179;28;20448;-73
2022/09/01 01:28:32;;;;;;;4.55;2.08;;;13.10;99.90;;;;;;5037541;28;20094;-71
2022/09/01 01:31:11;;;;;;;6.15;1.80;;;13.10;99.90;;;;;;5037387;28;20364;-72
2022/09/01 01:33:58;;;;;;;4.90;2.22;;;13.00;99.90;;;;;;5035099;28;20040;-72
2022/09/01 01:36:31;;;;;;;6.25;2.00;;;13.00;99.90;;;;;;5055623;28;20080;-72
2022/09/01 01:39:02;;;;;;;4.18;1.70;;;13.00;99.90;;;;;;5047809;28;20037;-71
2022/09/01 01:41:30;;;;;;;5.77;2.00;;;13.00;99.90;;;;;;5050563;28;20106;-72
2022/09/01 01:44:03;;;;;;;4.90;2.38;;;13.60;99.90;;;;;;5055072;28;20063;-71
2022/09/01 01:46:33;;;;;;;5.05;2.10;;;12.90;99.90;;;;;;5055427;28;20120;-71
2022/09/01 01:49:01;;;;;;;5.20;2.13;;;12.90;99.90;;;;;;5043374;28;20120;-72
2022/09/01 01:51:29;;;;;;;5.35;2.22;;;12.90;99.90;;;;;;5032813;28;20045;-71
2022/09/01 01:53:55;;;;;;;5.30;2.15;;;12.90;99.90;;;;;;5049853;28;20041;-71
2022/09/01 01:56:24;;;;;;;4.88;1.95;;;12.80;99.90;;;;;;5041188;28;20102;-71
2022/09/01 01:58:53;;;;;;;4.70;1.70;;;12.80;99.90;;;;;;5032637;28;20047;-71
2022/09/01 02:01:20;;;;;;;4.45;1.70;;;12.70;99.90;;;;;;5062047;28;20048;-71
2022/09/01 02:03:46;;;;;;;6.60;2.10;;;12.80;99.90;;;;;;5055282;28;20080;-71
2022/09/01 02:06:12;;;;;;;5.07;1.98;;;12.80;99.90;;;;;;5047082;28;20073;-74
2022/09/01 02:08:39;;;;;;;5.32;2.03;;;12.80;99.90;;;;;;5036052;28;20044;-72
2022/09/01 02:11:07;;;;;;;5.97;2.20;;;12.80;99.90;;;;;;5042085;28;20120;-71
2022/09/01 02:13:34;;;;;;;6.13;2.10;;;12.70;99.90;;;;;;5041787;28;20424;-72
2022/09/01 02:16:03;;;;;;;5.13;2.20;;;12.70;99.90;;;;;;5034510;28;20040;-71
2022/09/01 02:18:34;;;;;;;6.57;2.17;;;12.70;99.90;;;;;;5018975;28;20090;-71
2022/09/01 02:21:01;;;;;;;5.68;2.08;;;12.70;99.90;;;;;;5052224;28;20040;-71
2022/09/01 02:23:27;;;;;;;6.00;2.13;;;12.70;99.90;;;;;;5038010;28;20376;-72
2022/09/01 02:25:56;;;;;;;4.63;2.08;;;12.70;99.90;;;;;;5054059;28;20052;-72
2022/09/01 02:28:23;;;;;;;6.05;1.88;;;12.70;99.90;;;;;;5036774;28;20045;-71
2022/09/01 02:30:53;;;;;;;4.82;2.05;;;12.80;99.90;;;;;;5054985;28;20091;-73
2022/09/01 02:33:21;;;;;;;4.32;1.92;;;12.70;99.90;;;;;;5047664;28;20047;-72
2022/09/01 02:35:59;;;;;;;4.45;2.00;;;12.80;99.90;;;;;;5033992;28;20036;-71
2022/09/01 02:38:28;;;;;;;5.65;2.03;;;12.80;99.90;;;;;;5052558;28;20048;-71
2022/09/01 02:40:57;;;;;;;6.53;2.40;;;12.80;99.90;;;;;;5052974;28;20044;-71
2022/09/01 02:43:27;;;;;;;4.57;1.90;;;12.80;99.90;;;;;;5034904;28;20049;-75
2022/09/01 02:45:58;;;;;;;5.30;2.20;;;12.80;99.90;;;;;;5035135;28;20051;-71
2022/09/01 02:48:36;;;;;;;3.90;1.90;;;12.80;99.90;;;;;;5023700;28;20040;-72
2022/09/01 02:51:28;;;;;;;4.30;2.00;;;12.80;99.90;;;;;;5064381;28;20475;-74
2022/09/01 02:53:53;;;;;;;4.40;2.05;;;12.80;99.90;;;;;;5051434;28;20056;-71
2022/09/01 02:56:22;;;;;;;5.18;2.15;;;12.80;99.90;;;;;;5054650;28;20040;-71
2022/09/01 02:58:48;;;;;;;7.60;2.10;;;12.80;99.90;;;;;;5044863;28;20040;-71
2022/09/01 03:01:23;;;;;;;5.72;2.10;;;12.80;99.90;;;;;;5058101;28;20452;-72
2022/09/01 03:03:55;;;;;;;5.68;2.38;;;12.80;99.90;;;;;;5054733;28;20502;-71
2022/09/01 03:06:22;;;;;;;7.00;2.40;;;12.80;99.90;;;;;;5054550;28;20371;-70
2022/09/01 03:08:50;;;;;;;4.50;2.08;;;12.70;99.90;;;;;;5074400;28;20037;-73
2022/09/01 03:11:16;;;;;;;6.10;2.40;;;12.80;99.90;;;;;;5057693;28;20044;-73
2022/09/01 03:13:42;;;;;;;6.57;2.50;;;12.80;99.90;;;;;;5057573;28;20044;-73
2022/09/01 03:16:09;;;;;;;5.88;2.40;;;12.70;99.90;;;;;;5076703;28;20099;-72
2022/09/01 03:18:36;;;;;;;5.72;2.13;;;12.70;99.90;;;;;;5044424;28;20124;-71
2022/09/01 03:21:02;;;;;;;6.10;2.30;;;12.70;99.90;;;;;;5058486;28;20101;-71
2022/09/01 03:23:30;;;;;;;6.53;2.40;;;12.60;99.90;;;;;;5038662;28;20058;-72
2022/09/01 03:25:56;;;;;;;4.85;2.30;;;12.60;99.90;;;;;;5057337;28;20044;-72
2022/09/01 03:28:22;;;;;;;6.00;2.30;;;12.60;99.90;;;;;;5058546;28;20060;-71
2022/09/01 03:30:51;;;;;;;4.70;2.42;;;12.60;99.90;;;;;;5058807;28;20044;-72
2022/09/01 03:33:19;;;;;;;5.43;2.30;;;12.60;99.90;;;;;;5058320;28;20541;-72
2022/09/01 03:35:45;;;;;;;5.88;2.53;;;12.60;99.90;;;;;;5058052;28;20059;-71
2022/09/01 03:38:12;;;;;;;6.07;2.30;;;12.70;99.90;;;;;;5075456;28;20058;-74
2022/09/01 03:40:39;;;;;;;6.13;2.60;;;12.60;99.90;;;;;;5058246;28;20039;-72
2022/09/01 03:43:12;;;;;;;5.88;2.63;;;12.60;99.90;;;;;;5056556;28;20052;-71
2022/09/01 03:45:39;;;;;;;6.10;2.75;;;12.60;99.90;;;;;;5046514;28;20049;-71
2022/09/01 03:48:07;;;;;;;4.93;2.30;;;12.60;99.90;;;;;;5037154;28;20048;-71
2022/09/01 03:50:39;;;;;;;5.68;2.40;;;12.70;99.90;;;;;;5052863;28;20055;-72
2022/09/01 03:53:06;;;;;;;8.00;2.38;;;12.70;99.90;;;;;;5048162;28;20388;-73
2022/09/01 03:55:34;;;;;;;4.60;2.15;;;12.70;99.90;;;;;;5041708;28;20055;-72
2022/09/01 03:58:05;;;;;;;5.95;2.63;;;12.60;99.90;;;;;;5075571;28;20044;-73
2022/09/01 04:00:34;;;;;;;6.28;2.80;;;12.70;99.90;;;;;;5076001;28;20068;-71
2022/09/01 04:03:02;;;;;;;8.48;3.03;;;12.60;99.90;;;;;;5075241;28;20047;-73
2022/09/01 04:05:32;;;;;;;5.88;2.70;;;12.60;99.90;;;;;;5075365;28;20127;-73
2022/09/01 04:08:02;;;;;;;4.78;2.40;;;12.60;99.90;;;;;;5056684;28;20117;-73
2022/09/01 04:10:31;;;;;;;5.60;2.30;;;12.60;99.90;;;;;;5032061;28;20052;-72
2022/09/01 04:12:58;;;;;;;6.30;2.47;;;12.60;99.90;;;;;;5054550;28;20368;-73
2022/09/01 04:15:24;;;;;;;7.03;2.60;;;12.60;99.90;;;;;;5039951;28;20064;-72
2022/09/01 04:18:09;;;;;;;6.70;2.70;;;12.60;99.90;;;;;;5047259;28;20041;-71
2022/09/01 04:20:49;;;;;;;6.47;2.70;;;12.60;99.90;;;;;;5072523;28;20049;-72
2022/09/01 04:23:32;;;;;;;6.53;2.70;;;12.60;99.90;;;;;;5044544;28;20053;-72
2022/09/01 04:26:07;;;;;;;5.75;2.50;;;12.60;99.90;;;;;;5053822;28;20048;-72
2022/09/01 04:28:37;;;;;;;5.30;2.38;;;12.60;99.90;;;;;;5057221;28;20080;-72
2022/09/01 04:31:08;;;;;;;7.70;2.50;;;12.60;99.90;;;;;;5037771;28;20056;-71
2022/09/01 04:33:38;;;;;;;6.95;2.25;;;12.60;99.90;;;;;;5052455;28;20041;-71
2022/09/01 04:36:05;;;;;;;5.75;2.33;;;12.60;99.90;;;;;;5029334;28;20083;-73
2022/09/01 04:38:31;;;;;;;5.35;2.70;;;12.70;99.90;;;;;;5037153;28;20113;-73
2022/09/01 04:40:57;;;;;;;6.05;3.00;;;12.70;99.90;;;;;;5037481;28;20483;-70
2022/09/01 04:43:23;;;;;;;6.65;2.60;;;12.70;99.90;;;;;;5037182;28;20077;-72
2022/09/01 04:45:50;;;;;;;5.25;2.60;;;12.70;99.90;;;;;;5023425;28;20064;-71
2022/09/01 04:48:19;;;;;;;5.70;2.30;;;12.60;99.90;;;;;;5057175;28;20048;-70
2022/09/01 04:50:46;;;;;;;5.72;2.58;;;12.70;99.90;;;;;;5025187;28;20040;-71
2022/09/01 04:53:11;;;;;;;4.82;2.00;;;12.70;99.90;;;;;;5027291;28;20044;-71
2022/09/01 04:55:42;;;;;;;5.47;2.30;;;12.70;99.90;;;;;;5048635;28;20059;-71
2022/09/01 04:58:09;;;;;;;7.65;2.47;;;12.70;99.90;;;;;;5050637;28;20045;-71
2022/09/01 05:00:35;;;;;;;5.45;2.00;;;12.70;99.90;;;;;;5044411;28;20128;-73
2022/09/01 05:03:03;;;;;;;5.95;2.38;;;12.70;99.90;;;;;;5058037;28;20120;-71
2022/09/01 05:05:41;;;;;;;6.05;2.42;;;12.70;99.90;;;;;;5049606;28;20048;-70
2022/09/01 05:08:13;;;;;;;4.60;2.30;;;12.70;99.90;;;;;;5052876;28;20044;-71
2022/09/01 05:10:45;;;;;;;6.03;2.70;;;12.70;99.90;;;;;;5056801;28;20052;-71
2022/09/01 05:13:16;;;;;;;5.20;2.50;;;12.70;99.90;;;;;;5056457;28;20048;-71
2022/09/01 05:15:47;;;;;;;5.50;2.42;;;12.70;99.90;;;;;;5056445;28;20040;-71
2022/09/01 05:18:26;;;;;;;5.32;2.70;;;12.70;99.90;;;;;;5043026;28;20049;-70
2022/09/01 05:20:54;;;;;;;6.15;2.50;;;12.70;99.90;;;;;;5033069;28;20047;-71
2022/09/01 05:23:20;;;;;;;6.53;2.50;;;12.70;99.90;;;;;;5050963;28;20479;-71
2022/09/01 05:25:50;;;;;;;5.95;2.92;;;12.60;99.90;;;;;;5042580;28;20040;-71
2022/09/01 05:28:17;;;;;;;5.95;2.47;;;12.70;99.90;;;;;;5049719;28;20052;-71
2022/09/01 05:30:45;;;;;;;5.22;2.50;;;12.60;99.90;;;;;;5066463;28;20462;-71
2022/09/01 05:33:15;;;;;;;5.53;2.50;;;12.60;99.90;;;;;;5047274;28;20111;-72
2022/09/01 05:35:51;;;;;;;5.63;2.72;;;12.60;99.90;;;;;;5069832;28;20036;-71
2022/09/01 05:38:16;;;;;;;5.00;2.63;;;12.60;99.90;;;;;;5066689;28;20040;-71
2022/09/01 05:40:43;;;;;;;4.65;2.45;;;12.60;99.90;;;;;;5046060;28;20128;-71
2022/09/01 05:43:11;;;;;;;5.25;2.67;;;12.60;99.90;;;;;;5031814;28;20036;-71
2022/09/01 05:45:40;;;;;;;6.15;2.70;;;12.60;99.90;;;;;;5060088;28;20050;-71
2022/09/01 05:48:08;;;;;;;6.25;2.85;;;12.60;99.90;;;;;;5054386;28;20039;-74
2022/09/01 05:50:34;;;;;;;5.45;2.67;;;12.60;99.90;;;;;;5041768;28;20052;-70
2022/09/01 05:53:01;;;;;;;6.50;3.00;;;12.70;99.90;;;;;;5075873;28;20071;-71
2022/09/01 05:55:27;;;;;;;7.05;3.00;;;12.70;99.90;;;;;;5042772;28;20045;-70
2022/09/01 05:57:53;;;;;;;5.53;2.75;;;12.70;99.90;;;;;;5068857;28;20094;-73
2022/09/01 06:00:19;;;;;;;5.32;2.80;;;12.70;99.90;;;;;;5068050;28;20506;-71
2022/09/01 06:02:45;;;;;;;6.45;2.67;;;12.80;99.90;;;;;;5045567;28;20044;-72
2022/09/01 06:05:14;;;;;;;4.40;2.60;;;12.80;99.90;;;;;;5067094;28;20375;-74
2022/09/01 06:07:41;;;;;;;6.50;2.75;;;12.90;99.90;;;;;;5073482;28;20063;-75
2022/09/01 06:10:08;;;;;;;7.03;2.72;;;13.40;99.90;;;;;;5050808;28;20391;-71
2022/09/01 06:12:33;;;;;;;5.85;2.40;;;13.90;99.90;;;;;;5072147;28;20051;-70
2022/09/01 06:15:00;;;;;;;6.05;2.40;;;14.80;99.90;;;;;;5070054;28;20053;-74
2022/09/01 06:17:28;;;;;;;5.57;2.53;;;15.70;99.90;;;;;;5069427;28;20362;-71
2022/09/01 06:19:55;;;;;;;6.68;2.28;;;16.10;99.90;;;;;;5052787;28;20127;-70
2022/09/01 06:22:22;;;;;;;5.50;2.30;;;16.60;99.90;;;;;;5068232;28;20080;-71
2022/09/01 06:24:50;;;;;;;6.20;2.40;;;17.30;99.90;;;;;;5066968;28;20073;-71
2022/09/01 06:27:19;;;;;;;5.03;2.08;;;17.80;99.90;;;;;;5045267;28;20064;-73
2022/09/01 06:29:48;;;;;;;5.25;1.90;;;18.40;99.90;;;;;;5079104;28;20045;-72
2022/09/01 06:32:14;;;;;;;5.22;2.00;;;18.40;99.90;;;;;;5045809;28;20044;-75
2022/09/01 06:34:42;;;;;;;5.07;1.92;;;18.90;99.90;;;;;;5084819;28;20035;-73
2022/09/01 06:37:08;;;;;;;6.20;2.30;;;19.30;99.70;;;;;;5064065;28;20464;-70
2022/09/01 06:39:34;;;;;;;4.22;2.05;;;19.40;98.00;;;;;;5062277;28;20126;-72
2022/09/01 06:42:01;;;;;;;4.32;2.10;;;18.70;97.80;;;;;;5062777;28;20132;-72
2022/09/01 06:44:30;;;;;;;4.80;2.20;;;18.20;98.20;;;;;;5047303;28;20051;-72
2022/09/01 06:46:58;;;;;;;6.72;2.17;;;17.80;99.90;;;;;;5048324;28;20035;-73
2022/09/01 06:49:29;;;;;;;4.50;2.00;;;17.80;99.90;;;;;;5065212;28;20090;-70
2022/09/01 06:51:55;;;;;;;4.82;2.20;;;17.90;99.90;;;;;;5081194;28;20044;-72
2022/09/01 06:54:21;;;;;;;5.82;2.00;;;18.10;99.90;;;;;;5046582;28;20564;-71
2022/09/01 06:56:47;;;;;;;4.45;1.88;;;19.10;99.90;;;;;;5081053;28;20036;-71
2022/09/01 06:59:14;;;;;;;4.85;1.80;;;19.60;98.30;;;;;;5053613;28;20044;-75
2022/09/01 07:01:40;;;;;;;5.38;2.10;;;20.20;97.50;;;;;;5065878;28;20067;-72
2022/09/01 07:04:06;;;;;;;6.03;1.98;;;19.40;96.90;;;;;;5049963;28;20423;-72
2022/09/01 07:06:34;;;;;;;6.15;1.80;;;20.10;96.10;;;;;;5070439;28;20102;-73
2022/09/01 07:09:00;;;;;;;4.90;1.80;;;20.00;95.70;;;;;;5055745;28;20417;-72
2022/09/01 07:11:31;;;;;;;7.07;1.90;;;20.20;96.00;;;;;;5082232;28;20087;-73
2022/09/01 07:14:02;;;;;;;5.95;1.83;;;20.50;96.00;;;;;;5056220;28;20055;-71
2022/09/01 07:16:33;;;;;;;4.30;1.70;;;20.50;94.60;;;;;;5067996;28;20535;-72
2022/09/01 07:19:01;;;;;;;6.50;1.95;;;20.50;93.80;;;;;;5067723;28;20041;-72
2022/09/01 07:21:30;;;;;;;5.50;1.85;;;20.30;94.20;;;;;;5071430;28;20059;-74
2022/09/01 07:24:00;;;;;;;5.75;1.63;;;20.40;95.20;;;;;;5045627;28;20579;-70
2022/09/01 07:26:27;;;;;;;5.47;1.75;;;20.50;93.70;;;;;;5039862;28;20200;-73
2022/09/01 07:28:53;;;;;;;5.10;1.70;;;20.90;92.50;;;;;;5057303;28;20476;-74
2022/09/01 07:31:30;;;;;;;5.63;1.73;;;21.20;92.10;;;;;;5024139;28;20636;-75
2022/09/01 07:33:59;;;;;;;4.60;1.70;;;21.30;92.10;;;;;;5040777;28;20545;-73
2022/09/01 07:36:25;;;;;;;4.32;1.58;;;21.40;91.30;;;;;;5039453;28;20056;-74
2022/09/01 07:38:53;;;;;;;4.70;1.70;;;21.60;91.60;;;;;;5026923;28;20037;-72
2022/09/01 07:41:25;;;;;;;4.65;1.60;;;21.60;90.40;;;;;;5032916;28;20051;-78
2022/09/01 07:43:51;;;;;;;5.68;1.88;;;21.90;90.80;;;;;;5043853;28;20049;-73
2022/09/01 07:46:19;;;;;;;5.30;1.80;;;22.10;90.90;;;;;;5025304;28;20045;-71
2022/09/01 07:48:47;;;;;;;4.00;1.60;;;22.20;87.90;;;;;;5029033;28;20136;-73
2022/09/01 07:51:16;;;;;;;4.82;1.73;;;22.20;87.40;;;;;;5041897;28;20547;-73
2022/09/01 07:53:43;;;;;;;5.55;1.70;;;22.10;86.80;;;;;;5033218;28;20058;-74
2022/09/01 07:56:11;;;;;;;3.95;1.63;;;21.70;88.10;;;;;;5021626;28;20136;-73
2022/09/01 07:58:39;;;;;;;5.22;1.92;;;21.60;87.60;;;;;;5032706;28;20038;-73
2022/09/01 08:01:10;;;;;;;5.57;1.80;;;21.30;88.10;;;;;;5018207;28;20042;-72
2022/09/01 08:03:36;;;;;;;5.15;1.52;;;21.10;88.30;;;;;;5045688;28;20045;-75
2022/09/01 08:06:08;;;;;;;4.40;1.50;;;20.90;89.70;;;;;;5029826;28;20055;-72
2022/09/01 08:08:35;;;;;;;4.38;1.70;;;20.90;89.70;;;;;;5043379;28;20067;-71
2022/09/01 08:11:02;;;;;;;4.70;1.48;;;21.00;90.40;;;;;;5040478;28;20041;-73
2022/09/01 08:13:28;;;;;;;4.30;1.40;;;21.70;90.00;;;;;;5026965;28;20119;-73
2022/09/01 08:15:54;;;;;;;4.68;1.60;;;21.70;88.70;;;;;;5037463;28;20086;-74
2022/09/01 08:18:20;;;;;;;5.53;1.55;;;21.90;87.30;;;;;;5040100;28;20069;-72
2022/09/01 08:20:47;;;;;;;5.88;1.60;;;21.90;85.40;;;;;;5040571;28;20116;-75
2022/09/01 08:23:17;;;;;;;4.85;1.60;;;21.90;85.50;;;;;;5045533;28;20483;-74
2022/09/01 08:25:44;;;;;;;6.18;1.65;;;22.00;86.50;;;;;;5058535;28;20056;-77
2022/09/01 08:28:11;;;;;;;3.90;1.50;;;22.40;84.70;;;;;;5025750;28;20116;-72
2022/09/01 08:30:39;;;;;;;3.83;1.27;;;22.30;83.90;;;;;;5044027;28;20113;-72
2022/09/01 08:33:05;;;;;;;5.25;1.50;;;22.50;84.50;;;;;;5037967;28;20108;-71
2022/09/01 08:35:30;;;;;;;5.78;1.40;;;22.80;83.20;;;;;;5057165;28;20040;-73
2022/09/01 08:37:57;;;;;;;4.43;1.40;;;23.00;80.50;;;;;;5033414;28;20534;-71
2022/09/01 08:40:24;;;;;;;5.40;1.50;;;23.30;81.10;;;;;;5051414;28;20041;-74
2022/09/01 08:43:17;;;;;;;5.70;1.60;;;23.20;80.00;;;;;;5017015;28;20079;-72
2022/09/01 08:45:48;;;;;;;3.33;1.17;;;23.40;76.60;;;;;;5041541;28;20056;-71
2022/09/01 08:48:18;;;;;;;4.47;1.13;;;23.40;78.00;;;;;;5038031;28;20033;-71
2022/09/01 08:50:53;;;;;;;4.13;1.13;;;23.40;77.90;;;;;;5018836;28;20376;-73
2022/09/01 08:53:32;;;;;;;3.05;1.10;;;23.30;75.30;;;;;;5016541;28;20041;-72
2022/09/01 08:55:58;;;;;;;5.55;1.30;;;23.60;74.10;;;;;;5014918;28;20048;-72
2022/09/01 08:58:29;;;;;;;4.22;1.27;;;23.50;74.20;;;;;;5036586;28;20045;-76
2022/09/01 09:01:01;;;;;;;4.35;1.17;;;23.60;74.70;;;;;;5037356;28;20046;-71
2022/09/01 09:04:05;;;;;;;4.05;1.40;;;23.60;75.00;;;;;;5037037;28;20455;-71
2022/09/01 09:06:46;;;;;;;3.42;1.20;;;23.80;72.40;;;;;;4998641;28;20116;-73
2022/09/01 09:09:11;;;;;;;5.32;1.30;;;23.80;70.20;;;;;;5036758;28;20084;-72
2022/09/01 09:12:02;;;;;;;3.65;1.13;;;23.60;71.80;;;;;;5041602;28;20069;-73
2022/09/01 09:14:44;;;;;;;3.70;1.05;;;23.60;69.60;;;;;;5027241;28;20481;-71
2022/09/01 09:17:13;;;;;;;3.03;1.10;;;23.80;68.90;;;;;;5028792;28;20060;-73
2022/09/01 09:19:42;;;;;;;4.45;1.00;;;23.90;68.10;;;;;;5019528;28;20493;-70
2022/09/01 09:22:12;;;;;;;3.92;1.13;;;23.90;66.80;;;;;;5027626;28;20053;-71
2022/09/01 09:24:49;;;;;;;5.40;1.00;;;23.90;65.90;;;;;;5015966;28;20041;-71
2022/09/01 09:27:26;;;;;;;3.58;1.00;;;23.90;68.20;;;;;;5022548;28;20036;-71
2022/09/01 09:30:15;;;;;;;3.67;1.20;;;24.40;67.00;;;;;;5046613;28;20045;-71
2022/09/01 09:32:51;;;;;;;3.65;1.00;;;24.40;66.20;;;;;;5033235;28;20124;-69
2022/09/01 09:35:22;;;;;;;3.47;1.02;;;24.20;64.40;;;;;;5043149;28;20046;-74
2022/09/01 09:37:48;;;;;;;2.78;0.85;;;24.40;64.40;;;;;;5028396;28;20483;-73
2022/09/01 09:40:16;;;;;;;3.97;1.00;;;24.50;64.40;;;;;;5046241;28;20044;-70
2022/09/01 09:43:00;;;;;;;4.75;1.00;;;24.50;61.60;;;;;;5048959;28;20378;-72
2022/09/01 09:45:36;;;;;;;3.85;1.00;;;24.70;63.30;;;;;;5062975;28;20060;-74
2022/09/01 09:48:29;;;;;;;3.30;1.05;;;25.00;59.90;;;;;;5057051;28;20170;-76
2022/09/01 09:51:13;;;;;;;5.53;1.10;;;24.90;56.70;;;;;;5070513;28;20116;-72
2022/09/01 09:53:39;;;;;;;3.35;1.00;;;24.80;56.90;;;;;;5062850;28;20102;-74
2022/09/01 09:56:14;;;;;;;4.07;1.00;;;24.90;57.90;;;;;;5035800;28;20052;-72
2022/09/01 09:58:41;;;;;;;4.28;1.23;;;25.10;57.80;;;;;;5068830;28;20037;-71
2022/09/01 10:01:14;;;;;;;4.43;1.17;;;25.20;56.30;;;;;;5046552;28;20037;-74
2022/09/01 10:03:42;;;;;;;2.30;0.88;;;25.00;56.10;;;;;;5055772;28;20097;-74
2022/09/01 10:06:27;;;;;;;4.68;1.00;;;25.20;57.30;;;;;;5043599;28;20049;-72
2022/09/01 10:08:53;;;;;;;3.35;1.10;;;25.50;56.20;;;;;;5055783;28;20841;-74
2022/09/01 10:11:29;;;;;;;3.05;0.90;;;25.80;55.30;;;;;;5047536;28;20372;-71
2022/09/01 10:13:56;;;;;;;3.30;1.00;;;25.70;54.10;;;;;;5032943;28;20393;-73
2022/09/01 10:16:30;;;;;;;4.45;1.00;;;25.50;54.80;;;;;;5007950;28;20105;-75
2022/09/01 10:18:59;;;;;;;4.35;1.10;;;25.40;53.20;;;;;;5004866;28;20040;-72
2022/09/01 10:21:45;;;;;;;3.70;1.00;;;25.30;52.50;;;;;;5008649;28;20053;-74
2022/09/01 10:24:29;;;;;;;5.47;1.00;;;24.90;53.30;;;;;;4994738;28;20057;-72
2022/09/01 10:27:00;;;;;;;3.08;1.00;;;24.70;53.30;;;;;;5009958;28;20061;-72
2022/09/01 10:29:39;;;;;;;3.55;0.90;;;24.30;54.50;;;;;;5011539;28;20397;-73
2022/09/01 10:32:09;;;;;;;3.55;1.08;;;24.30;54.70;;;;;;5013001;28;21726;-71
2022/09/01 10:34:36;;;;;;;4.88;1.08;;;24.40;54.90;;;;;;5011710;28;20037;-74
2022/09/01 10:37:05;;;;;;;4.47;1.17;;;24.20;53.20;;;;;;5015679;28;20057;-73
2022/09/01 10:39:31;;;;;;;3.95;0.98;;;24.60;53.80;;;;;;5014493;28;20042;-72
2022/09/01 10:42:06;;;;;;;3.42;0.93;;;24.40;53.50;;;;;;5036409;28;20056;-75
2022/09/01 10:44:34;;;;;;;2.95;0.95;;;24.50;53.60;;;;;;5017735;28;20047;-72
2022/09/01 10:47:09;;;;;;;2.92;0.82;;;24.70;51.70;;;;;;5026249;28;20107;-73
2022/09/01 10:49:34;;;;;;;4.55;0.90;;;24.90;52.90;;;;;;5006350;28;20041;-74
2022/09/01 10:52:00;;;;;;;3.78;0.82;;;25.30;51.90;;;;;;4999119;28;20055;-73
2022/09/01 10:54:51;;;;;;;3.17;0.77;;;25.70;52.10;;;;;;5004970;28;20042;-73
2022/09/01 10:57:29;;;;;;;3.17;0.82;;;25.60;49.40;;;;;;5012540;28;20054;-71
2022/09/01 11:00:14;;;;;;;3.85;1.15;;;25.80;49.50;;;;;;5012615;28;20049;-70
2022/09/01 11:02:39;;;;;;;3.83;1.00;;;25.80;48.90;;;;;;4996207;28;20107;-74
2022/09/01 11:05:05;;;;;;;5.00;1.00;;;25.60;50.60;;;;;;5015630;28;20473;-74
2022/09/01 11:07:33;;;;;;;3.72;0.90;;;25.80;50.20;;;;;;5008419;28;20132;-72
2022/09/01 11:10:31;;;;;;;3.45;0.90;;;25.90;49.70;;;;;;5032769;28;20045;-71
2022/09/01 11:13:06;;;;;;;2.97;0.90;;;26.00;50.50;;;;;;5026447;28;20125;-73
2022/09/01 11:15:41;;;;;;;4.68;0.90;;;25.80;49.80;;;;;;5008057;28;20495;-78
2022/09/01 11:18:28;;;;;;;4.28;0.90;;;25.90;46.90;;;;;;5023683;28;20476;-73
2022/09/01 11:20:54;;;;;;;4.03;0.90;;;25.80;47.60;;;;;;5002590;28;20040;-76
2022/09/01 11:23:30;;;;;;;3.35;0.85;;;25.00;46.80;;;;;;5015014;28;20052;-73
2022/09/01 11:26:01;;;;;;;2.80;0.90;;;24.30;48.00;;;;;;5018737;28;20041;-71
2022/09/01 11:28:30;;;;;;;;;;;24.60;49.10;;;;;;5017800;28;20041;-72
2022/09/01 11:31:10;;;;;;;3.60;1.02;;;25.00;47.90;;;;;;5056157;28;19962;-72
2022/09/01 11:33:47;;;;;;;4.05;1.00;;;25.20;48.20;;;;;;5036375;28;20041;-73
2022/09/01 11:36:22;;;;;;;3.05;0.90;;;24.70;48.70;;;;;;5038126;28;20045;-75
2022/09/01 11:38:54;;;;;;;4.15;1.00;;;24.60;49.60;;;;;;5037866;28;20074;-73
2022/09/01 11:41:39;;;;;;;4.00;1.10;;;24.30;47.50;;;;;;5038574;28;20044;-73
2022/09/01 11:44:14;;;;;;;3.10;0.90;;;23.90;49.20;;;;;;5036240;28;20048;-71
2022/09/01 11:46:43;;;;;;;3.83;0.90;;;23.60;49.20;;;;;;5009848;28;20049;-74
2022/09/01 11:49:23;;;;;;;3.17;0.93;;;23.40;49.80;;;;;;5028923;28;20045;-72
2022/09/01 11:51:48;;;;;;;3.70;0.90;;;23.30;49.90;;;;;;5055486;28;20127;-74
2022/09/01 11:54:15;;;;;;;3.40;1.00;;;23.60;50.70;;;;;;5037697;28;20446;-73
2022/09/01 11:56:41;;;;;;;3.55;1.00;;;23.80;49.20;;;;;;5021860;28;20132;-72
2022/09/01 11:59:06;;;;;;;2.90;0.85;;;23.80;49.80;;;;;;5055242;28;20041;-74
2022/09/01 12:01:35;;;;;;;2.65;0.80;;;23.90;49.70;;;;;;5038223;28;20049;-75
2022/09/01 12:04:27;;;;;;;2.67;0.90;;;24.10;48.20;;;;;;5038236;28;20049;-71
2022/09/01 12:07:05;;;;;;;3.75;0.93;;;24.40;48.80;;;;;;5032705;28;20048;-74
2022/09/01 12:09:44;;;;;;;3.13;0.85;;;24.30;47.60;;;;;;5037306;28;20496;-72
2022/09/01 12:12:35;;;;;;;3.92;0.82;;;24.20;48.00;;;;;;5038038;28;20040;-73
2022/09/01 12:15:21;;;;;;;3.67;0.90;;;24.10;48.40;;;;;;5037753;28;20044;-75
2022/09/01 12:17:47;;;;;;;3.25;1.00;;;24.20;47.30;;;;;;5015490;28;20101;-77
2022/09/01 12:20:27;;;;;;;3.83;1.00;;;24.20;47.10;;;;;;5037231;28;20076;-76
2022/09/01 12:22:54;;;;;;;3.92;0.90;;;24.10;46.70;;;;;;5044199;28;20085;-72
2022/09/01 12:25:29;;;;;;;3.05;0.90;;;24.00;46.60;;;;;;5024996;28;20049;-72
2022/09/01 12:27:55;;;;;;;3.75;0.90;;;23.80;47.30;;;;;;5020174;28;20098;-75
2022/09/01 12:30:22;;;;;;;3.28;0.90;;;23.90;46.40;;;;;;5054820;28;20044;-71
2022/09/01 12:32:48;;;;;;;3.15;0.90;;;23.70;46.90;;;;;;5046780;28;20063;-73
2022/09/01 12:35:19;;;;;;;4.07;1.00;;;23.50;46.70;;;;;;5011843;28;20487;-73
2022/09/01 12:37:45;;;;;;;2.00;0.80;;;23.40;46.60;;;;;;5033841;28;20472;-74
2022/09/01 12:40:34;;;;;;;2.72;0.90;;;23.50;46.40;;;;;;5030861;28;20051;-74
2022/09/01 12:43:00;;;;;;;5.63;0.90;;;23.60;47.70;;;;;;5009730;28;20396;-73
2022/09/01 12:45:41;;;;;;;3.25;1.00;;;23.60;48.00;;;;;;5028632;28;20045;-75
2022/09/01 12:48:33;;;;;;;4.57;0.90;;;23.60;48.10;;;;;;5034044;28;20132;-71
2022/09/01 12:51:05;;;;;;;2.65;0.70;;;23.40;47.10;;;;;;5036598;28;20095;-74
2022/09/01 12:53:33;;;;;;;3.17;0.90;;;23.50;47.20;;;;;;5036798;28;20041;-75
2022/09/01 12:56:25;;;;;;;3.05;1.00;;;23.70;47.70;;;;;;5037079;28;20371;-73
2022/09/01 12:59:01;;;;;;;;;;;24.20;47.10;;;;;;5014010;28;20045;-73
2022/09/01 13:01:31;;;;;;;3.28;0.95;;;24.00;47.90;;;;;;5018693;28;20004;-72
2022/09/01 13:04:09;;;;;;;4.10;0.90;;;24.00;48.50;;;;;;5018938;28;20060;-74
2022/09/01 13:06:36;;;;;;;3.35;1.10;;;23.80;48.20;;;;;;5035504;28;20045;-74
2022/09/01 13:09:02;;;;;;;4.28;1.00;;;23.70;48.80;;;;;;5036523;28;20167;-74